International Falls, MN

6:47 PM CDT on October 30, 2014 (GMT -0500)
Falls International | Change Station
CLOSE
Current Station
Airport
Location: International Falls,
Elevation: 1181 ft
Nearby Weather Stations

Elev 1181 ft 48.56 °N, 93.40 °W | Updated 52 minutes ago

Clear
Clear
28 °F
Feels Like 16 °F
N
17
Wind Variable Wind from NNW
Gusts 25 mph

Today
High -- | Low -- °F
--% Chance of Precip.
Yesterday
High -- | Low -- °F
Precip. -- in
7:56 AM 5:57 PM
Waxing Crescent, 49% visible
Pressure 30.34 in
Visibility 10.0 miles
Clouds Clear
Windchill 16 °F
Dew Point 21 °F
Humidity 75%
Rainfall 0.04 in
Snow Depth Not available.
UV 0 out of 12
Pollen .10 out of 12
Air Quality Not available.
Flu Activity Not available.
METAR KINL 302255Z AUTO 34015G22KT 10SM CLR M02/M06 A3028 RMK AO2 PK WND 33029/2217 UPB06E07SNE06B07E16 SLP273 P0000 T10221061

More Conditions Fewer Conditions

Pressure 30.34 in
Visibility 10.0 miles
Clouds Clear
Windchill 16 °F
Dew Point 21 °F
Humidity 75%
Rainfall 0.04 in
Snow Depth Not available.
UV 0 out of 12
Pollen .10 out of 12
Air Quality Not available.
Flu Activity Not available.
METAR KINL 302255Z AUTO 34015G22KT 10SM CLR M02/M06 A3028 RMK AO2 PK WND 33029/2217 UPB06E07SNE06B07E16 SLP273 P0000 T10221061

More Conditions Fewer Conditions

10-Day Weather Forecast

Almanac

Astronomy

Oct. 30, 2014 Rise Set
Actual Time
Civil Twilight
Nautical Twilight
Astronomical Twilight
Moon
Length of Visible Light
Length of Day
Tomorrow will be .
, % of the Moon is Illuminated

Today's Extremes

State Highs State Lows

Community

WunderPhotos

Upload Photos

1,766,496 photos uploaded!

WunderBlogs® & News

Nearby

Air Quality

  Air Quality AQ Index Pollutant
Not available.

Snow Depth

Station Depth Elevation

Earthquake Activity

City Distance Mag. Time & Date
Minimum magnitude displayed is 2.5.

Coastal Water Temperatures

Place Temperature

Nearby Weather Stations